createdAt,value
2019-01-04T00:00:52.543Z,1024
2019-01-04T00:01:54.678Z,1024.1
2019-01-04T00:02:56.816Z,1024.1
2019-01-04T00:03:59.143Z,1024.1
2019-01-04T00:05:01.263Z,1024.1
2019-01-04T00:07:35.870Z,1024.1
2019-01-04T00:08:37.920Z,1024
2019-01-04T00:09:39.963Z,1024
2019-01-04T00:10:42.073Z,1024
2019-01-04T00:11:44.137Z,1024
2019-01-04T00:12:46.562Z,1024
2019-01-04T00:13:48.651Z,1024
2019-01-04T00:14:50.703Z,1023.9
2019-01-04T00:15:52.773Z,1024
2019-01-04T00:16:54.861Z,1023.9
2019-01-04T00:17:57.110Z,1024
2019-01-04T00:18:59.178Z,1024
2019-01-04T00:20:01.546Z,1024
2019-01-04T00:21:03.685Z,1024
2019-01-04T00:22:05.882Z,1024
2019-01-04T00:23:07.984Z,1024.1
2019-01-04T00:24:10.031Z,1024.1
2019-01-04T00:25:12.059Z,1024.1
2019-01-04T00:26:14.106Z,1024.1
2019-01-04T00:27:16.132Z,1024.1
2019-01-04T00:28:18.178Z,1024.1
2019-01-04T00:29:20.511Z,1024
2019-01-04T00:30:22.971Z,1024
2019-01-04T00:31:25.459Z,1023.9
2019-01-04T00:32:27.956Z,1023.9
2019-01-04T00:33:30.042Z,1024
2019-01-04T00:34:32.140Z,1023.9
2019-01-04T00:35:34.220Z,1023.9
2019-01-04T00:36:36.267Z,1023.8
2019-01-04T00:37:38.582Z,1023.8
2019-01-04T00:38:40.662Z,1023.8
2019-01-04T00:39:42.719Z,1023.8
2019-01-04T00:40:44.782Z,1023.8
2019-01-04T00:41:46.842Z,1023.8
2019-01-04T00:42:48.913Z,1023.8
2019-01-04T00:43:51.006Z,1023.8
2019-01-04T00:44:53.245Z,1023.8
2019-01-04T00:45:55.331Z,1023.8
2019-01-04T00:46:57.385Z,1023.8
2019-01-04T00:47:59.448Z,1023.9
2019-01-04T00:49:01.545Z,1023.9
2019-01-04T00:50:03.599Z,1023.9
2019-01-04T00:51:05.635Z,1023.9
2019-01-04T00:52:07.704Z,1023.9
2019-01-04T00:53:09.749Z,1023.9
2019-01-04T00:54:11.780Z,1023.9
2019-01-04T00:55:13.867Z,1023.9
2019-01-04T00:56:15.907Z,1023.9
2019-01-04T00:57:17.943Z,1023.9
2019-01-04T00:58:20.015Z,1023.9
2019-01-04T00:59:22.355Z,1023.8
2019-01-04T01:00:25.594Z,1023.8
2019-01-04T01:01:27.989Z,1023.8
2019-01-04T01:02:30.188Z,1023.9
2019-01-04T01:03:32.274Z,1023.9
2019-01-04T01:04:34.316Z,1023.9
2019-01-04T01:05:36.365Z,1023.9
2019-01-04T01:06:38.823Z,1023.8
2019-01-04T01:07:40.928Z,1023.9
2019-01-04T01:08:44.066Z,1023.8
2019-01-04T01:09:47.896Z,1023.8
2019-01-04T01:10:55.103Z,1023.8
2019-01-04T01:11:57.275Z,1023.8
2019-01-04T01:12:59.692Z,1023.8
2019-01-04T01:14:02.044Z,1023.8
2019-01-04T01:15:04.134Z,1023.8
2019-01-04T01:16:06.160Z,1023.7
2019-01-04T01:17:08.292Z,1023.7
2019-01-04T01:18:10.351Z,1023.7
2019-01-04T01:19:12.412Z,1023.7
2019-01-04T01:20:14.526Z,1023.8
2019-01-04T01:21:16.545Z,1023.7
2019-01-04T01:22:18.603Z,1023.7
2019-01-04T01:23:20.662Z,1023.7
2019-01-04T01:24:22.697Z,1023.7
2019-01-04T01:25:24.737Z,1023.8
2019-01-04T01:26:26.923Z,1023.8
2019-01-04T01:27:29.289Z,1023.7
2019-01-04T01:28:31.337Z,1023.7
2019-01-04T01:29:33.366Z,1023.7
2019-01-04T01:30:35.450Z,1023.7
2019-01-04T01:31:37.518Z,1023.7
2019-01-04T01:32:39.647Z,1023.7
2019-01-04T01:33:42.100Z,1023.8
2019-01-04T01:34:44.176Z,1023.8
2019-01-04T01:35:46.250Z,1023.8
2019-01-04T01:36:48.365Z,1023.8
2019-01-04T01:37:50.436Z,1023.8
2019-01-04T01:38:52.480Z,1023.8
2019-01-04T01:39:54.503Z,1023.7
2019-01-04T01:40:56.741Z,1023.7
2019-01-04T01:41:58.787Z,1023.6
2019-01-04T01:43:00.877Z,1023.6
2019-01-04T01:44:02.946Z,1023.5
2019-01-04T01:45:04.985Z,1023.5
2019-01-04T01:46:07.059Z,1023.5
2019-01-04T01:47:09.099Z,1023.4
2019-01-04T01:48:11.142Z,1023.4
2019-01-04T01:49:13.266Z,1023.4
2019-01-04T01:50:15.311Z,1023.4
2019-01-04T01:51:17.374Z,1023.5
2019-01-04T01:52:19.393Z,1023.5
2019-01-04T01:53:21.449Z,1023.5
2019-01-04T01:54:23.904Z,1023.5
2019-01-04T01:55:25.946Z,1023.5
2019-01-04T01:56:28.697Z,1023.5
2019-01-04T01:57:30.744Z,1023.5
2019-01-04T01:58:32.802Z,1023.5
2019-01-04T01:59:34.850Z,1023.5
2019-01-04T02:00:36.913Z,1023.6
2019-01-04T02:01:39.251Z,1023.6
2019-01-04T02:02:41.669Z,1023.5
2019-01-04T02:03:44.121Z,1023.5
2019-01-04T02:04:46.186Z,1023.5
2019-01-04T02:05:48.245Z,1023.4
2019-01-04T02:06:50.306Z,1023.5
2019-01-04T02:07:52.339Z,1023.4
2019-01-04T02:08:54.390Z,1023.4
2019-01-04T02:09:56.447Z,1023.4
2019-01-04T02:10:58.505Z,1023.3
2019-01-04T02:12:00.541Z,1023.3
2019-01-04T02:13:03.268Z,1023.3
2019-01-04T02:14:05.340Z,1023.2
2019-01-04T02:15:07.395Z,1023.2
2019-01-04T02:16:09.428Z,1023.1
2019-01-04T02:17:11.464Z,1023.2
2019-01-04T02:18:13.517Z,1023.1
2019-01-04T02:19:15.557Z,1023.2
2019-01-04T02:20:17.873Z,1023.1
2019-01-04T02:21:19.904Z,1023.1
2019-01-04T02:22:21.959Z,1023.1
2019-01-04T02:23:23.993Z,1023.1
2019-01-04T02:24:26.040Z,1023.2
2019-01-04T02:25:28.092Z,1023.2
2019-01-04T02:26:30.155Z,1023.2
2019-01-04T02:27:32.225Z,1023.2
2019-01-04T02:28:34.270Z,1023.2
2019-01-04T02:29:36.297Z,1023.2
2019-01-04T02:30:38.374Z,1023.2
2019-01-04T02:31:40.428Z,1023.1
2019-01-04T02:32:42.478Z,1023.1
2019-01-04T02:33:44.557Z,1023
2019-01-04T02:34:46.605Z,1023
2019-01-04T02:35:48.652Z,1023
2019-01-04T02:36:50.989Z,1023
2019-01-04T02:37:53.029Z,1023
2019-01-04T02:38:55.359Z,1023
2019-01-04T02:39:57.393Z,1022.9
2019-01-04T02:40:59.852Z,1023
2019-01-04T02:42:01.888Z,1022.9
2019-01-04T02:43:03.936Z,1023
2019-01-04T02:44:06.560Z,1022.9
2019-01-04T02:45:08.608Z,1022.9
2019-01-04T02:46:11.226Z,1022.9
2019-01-04T02:47:13.264Z,1022.8
2019-01-04T02:48:15.303Z,1022.9
2019-01-04T02:49:17.613Z,1022.9
2019-01-04T02:50:19.944Z,1022.8
2019-01-04T02:51:21.983Z,1022.9
2019-01-04T02:52:24.020Z,1022.8
2019-01-04T02:53:26.064Z,1022.8
2019-01-04T02:54:28.375Z,1022.8
2019-01-04T02:55:30.849Z,1022.7
2019-01-04T02:56:32.889Z,1022.6
2019-01-04T02:57:34.940Z,1022.6
2019-01-04T02:58:36.973Z,1022.6
2019-01-04T02:59:39.341Z,1022.6
2019-01-04T03:00:41.391Z,1022.6
2019-01-04T03:01:43.808Z,1022.6
2019-01-04T03:02:45.859Z,1022.6
2019-01-04T03:03:48.580Z,1022.5
2019-01-04T03:04:50.676Z,1022.5
2019-01-04T03:05:52.719Z,1022.4
2019-01-04T03:06:54.748Z,1022.4
2019-01-04T03:07:57.071Z,1022.4
2019-01-04T03:08:59.187Z,1022.4
2019-01-04T03:10:01.608Z,1022.3
2019-01-04T03:11:03.668Z,1022.4
2019-01-04T03:12:05.731Z,1022.4
2019-01-04T03:13:07.773Z,1022.4
2019-01-04T03:14:09.796Z,1022.3
2019-01-04T03:15:12.136Z,1022.3
2019-01-04T03:16:14.163Z,1022.3
2019-01-04T03:17:16.871Z,1022.3
2019-01-04T03:18:19.215Z,1022.3
2019-01-04T03:19:21.250Z,1022.3
2019-01-04T03:20:24.176Z,1022.2
2019-01-04T03:21:26.506Z,1022.2
2019-01-04T03:22:28.562Z,1022.2
2019-01-04T03:23:30.896Z,1022.1
2019-01-04T03:24:32.927Z,1022
2019-01-04T03:25:35.306Z,1022.1
2019-01-04T03:26:37.342Z,1022.1
2019-01-04T03:27:39.377Z,1022.1
2019-01-04T03:28:42.090Z,1022.1
2019-01-04T03:29:44.140Z,1022.1
2019-01-04T03:30:46.196Z,1022.1
2019-01-04T03:31:48.631Z,1022.1
2019-01-04T03:32:50.716Z,1022.1
2019-01-04T03:33:53.040Z,1022.1
2019-01-04T03:34:55.359Z,1022
2019-01-04T03:35:57.394Z,1022
2019-01-04T03:36:59.429Z,1022
2019-01-04T03:38:01.757Z,1022
2019-01-04T03:39:04.112Z,1022
2019-01-04T03:40:06.546Z,1022
2019-01-04T03:41:08.582Z,1022
2019-01-04T03:42:10.609Z,1022
2019-01-04T03:43:13.032Z,1022
2019-01-04T03:44:15.071Z,1022
2019-01-04T03:45:17.406Z,1022
2019-01-04T03:46:19.453Z,1021.9
2019-01-04T03:47:21.816Z,1021.9
2019-01-04T03:48:23.839Z,1021.9
2019-01-04T03:49:25.880Z,1022
2019-01-04T03:50:27.945Z,1022
2019-01-04T03:51:30.330Z,1022
2019-01-04T03:52:33.153Z,1021.9
2019-01-04T03:53:35.199Z,1021.9
2019-01-04T03:54:37.248Z,1021.9
2019-01-04T03:55:39.315Z,1021.8
2019-01-04T03:56:41.369Z,1021.8
2019-01-04T03:57:43.699Z,1021.8
2019-01-04T03:58:46.123Z,1021.8
2019-01-04T03:59:48.170Z,1021.7
2019-01-04T04:00:50.596Z,1021.7
2019-01-04T04:01:52.628Z,1021.7
2019-01-04T04:02:54.696Z,1021.6
2019-01-04T04:03:56.746Z,1021.6
2019-01-04T04:04:58.778Z,1021.5
2019-01-04T04:06:00.825Z,1021.6
2019-01-04T04:07:03.215Z,1021.6
2019-01-04T04:08:05.243Z,1021.6
2019-01-04T04:09:07.287Z,1021.6
2019-01-04T04:10:09.385Z,1021.6
2019-01-04T04:11:11.435Z,1021.6
2019-01-04T04:12:13.480Z,1021.6
2019-01-04T04:13:15.520Z,1021.6
2019-01-04T04:14:17.581Z,1021.6
2019-01-04T04:15:19.921Z,1021.5
2019-01-04T04:16:22.289Z,1021.5
2019-01-04T04:17:24.333Z,1021.5
2019-01-04T04:18:26.380Z,1021.5
2019-01-04T04:19:28.435Z,1021.5
2019-01-04T04:20:30.468Z,1021.5
2019-01-04T04:21:32.544Z,1021.5
2019-01-04T04:22:34.588Z,1021.6
2019-01-04T04:23:36.636Z,1021.5
2019-01-04T04:24:38.670Z,1021.5
2019-01-04T04:25:40.714Z,1021.5
2019-01-04T04:26:42.760Z,1021.5
2019-01-04T04:27:44.801Z,1021.4
2019-01-04T04:28:46.893Z,1021.5
2019-01-04T04:29:49.593Z,1021.4
2019-01-04T04:30:51.625Z,1021.4
2019-01-04T04:31:53.679Z,1021.4
2019-01-04T04:32:55.785Z,1021.4
2019-01-04T04:33:58.113Z,1021.3
2019-01-04T04:35:00.218Z,1021.3
2019-01-04T04:36:02.270Z,1021.4
2019-01-04T04:37:04.615Z,1021.3
2019-01-04T04:38:06.934Z,1021.3
2019-01-04T04:39:08.983Z,1021.2
2019-01-04T04:40:11.008Z,1021.3
2019-01-04T04:41:13.068Z,1021.2
2019-01-04T04:42:15.128Z,1021.3
2019-01-04T04:43:17.447Z,1021.3
2019-01-04T04:44:19.471Z,1021.3
2019-01-04T04:45:21.500Z,1021.2
2019-01-04T04:46:23.540Z,1021.2
2019-01-04T04:47:25.582Z,1021.2
2019-01-04T04:48:27.918Z,1021.2
2019-01-04T04:49:29.955Z,1021.1
2019-01-04T04:50:31.997Z,1021.1
2019-01-04T04:51:34.056Z,1021.1
2019-01-04T04:52:36.087Z,1021.1
2019-01-04T04:53:38.400Z,1021.1
2019-01-04T04:54:40.808Z,1021.1
2019-01-04T04:55:43.254Z,1021.1
2019-01-04T04:56:45.294Z,1021
2019-01-04T04:57:47.628Z,1021.1
2019-01-04T04:58:49.660Z,1021
2019-01-04T04:59:51.969Z,1021
2019-01-04T05:00:54.669Z,1021
2019-01-04T05:01:57.392Z,1020.9
2019-01-04T05:02:59.438Z,1020.9
2019-01-04T05:04:01.886Z,1020.9
2019-01-04T05:05:03.963Z,1020.9
2019-01-04T05:06:06.279Z,1020.9
2019-01-04T05:07:08.335Z,1020.9
2019-01-04T05:08:10.365Z,1020.9
2019-01-04T05:09:12.725Z,1020.9
2019-01-04T05:10:15.156Z,1020.9
2019-01-04T05:11:17.219Z,1020.9
2019-01-04T05:12:19.275Z,1020.9
2019-01-04T05:13:21.616Z,1020.9
2019-01-04T05:14:23.694Z,1020.9
2019-01-04T05:15:25.753Z,1020.8
2019-01-04T05:16:27.808Z,1020.9
2019-01-04T05:17:29.860Z,1020.9
2019-01-04T05:18:31.905Z,1020.9
2019-01-04T05:19:33.951Z,1020.9
2019-01-04T05:20:36.014Z,1020.9
2019-01-04T05:21:38.087Z,1020.9
2019-01-04T05:22:40.219Z,1020.9
2019-01-04T05:23:42.753Z,1020.9
2019-01-04T05:24:44.934Z,1020.9
2019-01-04T05:25:47.523Z,1021
2019-01-04T05:26:50.649Z,1020.9
2019-01-04T05:27:52.790Z,1020.9
2019-01-04T05:28:54.952Z,1021
2019-01-04T05:29:57.109Z,1020.9
2019-01-04T05:30:59.540Z,1020.9
2019-01-04T05:32:01.693Z,1020.9
2019-01-04T05:33:04.457Z,1020.9
2019-01-04T05:34:06.961Z,1020.9
2019-01-04T05:35:09.090Z,1020.8
2019-01-04T05:36:11.222Z,1020.8
2019-01-04T05:37:13.708Z,1020.8
2019-01-04T05:38:15.900Z,1020.8
2019-01-04T05:39:18.081Z,1020.8
2019-01-04T05:40:20.529Z,1020.7
2019-01-04T05:41:22.756Z,1020.7
2019-01-04T05:42:24.898Z,1020.7
2019-01-04T05:43:27.342Z,1020.7
2019-01-04T05:44:30.182Z,1020.7
2019-01-04T05:45:32.355Z,1020.7
2019-01-04T05:46:34.581Z,1020.7
2019-01-04T05:47:36.755Z,1020.7
2019-01-04T05:48:38.888Z,1020.6
2019-01-04T05:49:41.066Z,1020.6
2019-01-04T05:50:43.201Z,1020.6
2019-01-04T05:51:45.374Z,1020.6
2019-01-04T05:52:48.189Z,1020.6
2019-01-04T05:53:50.366Z,1020.5
2019-01-04T05:54:52.529Z,1020.5
2019-01-04T05:55:54.697Z,1020.5
2019-01-04T05:56:56.864Z,1020.4
2019-01-04T05:57:59.028Z,1020.5
2019-01-04T05:59:01.204Z,1020.4
2019-01-04T06:00:03.415Z,1020.5
2019-01-04T06:01:05.616Z,1020.5
2019-01-04T06:02:08.032Z,1020.5
2019-01-04T06:03:10.213Z,1020.5
2019-01-04T06:04:12.743Z,1020.4
2019-01-04T06:05:14.899Z,1020.3
2019-01-04T06:06:17.709Z,1020.3
2019-01-04T06:07:19.875Z,1020.3
2019-01-04T06:08:22.018Z,1020.2
2019-01-04T06:09:24.433Z,1020.3
2019-01-04T06:10:26.643Z,1020.3
2019-01-04T06:11:28.841Z,1020.2
2019-01-04T06:12:31.022Z,1020.2
2019-01-04T06:13:33.283Z,1020.2
2019-01-04T06:14:35.448Z,1020.1
2019-01-04T06:15:38.031Z,1020.1
2019-01-04T06:16:40.217Z,1020.1
2019-01-04T06:17:42.413Z,1020
2019-01-04T06:18:44.559Z,1020
2019-01-04T06:19:46.736Z,1020
2019-01-04T06:20:48.892Z,1020
2019-01-04T06:21:51.050Z,1020
2019-01-04T06:22:53.497Z,1020
2019-01-04T06:23:55.664Z,1020
2019-01-04T06:24:57.884Z,1020
2019-01-04T06:26:00.080Z,1020
2019-01-04T06:27:02.242Z,1020
2019-01-04T06:28:04.376Z,1020
2019-01-04T06:29:06.525Z,1020
2019-01-04T06:30:09.134Z,1020
2019-01-04T06:31:11.322Z,1020
2019-01-04T06:32:13.812Z,1020
2019-01-04T06:33:15.954Z,1019.9
2019-01-04T06:34:18.132Z,1019.8
2019-01-04T06:35:20.301Z,1019.8
2019-01-04T06:36:22.461Z,1019.8
2019-01-04T06:37:24.616Z,1019.8
2019-01-04T06:38:26.756Z,1019.8
2019-01-04T06:39:28.920Z,1019.8
2019-01-04T06:40:31.115Z,1019.8
2019-01-04T06:41:33.240Z,1019.8
2019-01-04T06:42:35.425Z,1019.8
2019-01-04T06:43:37.573Z,1019.8
2019-01-04T06:44:39.871Z,1019.8
2019-01-04T06:45:41.986Z,1019.8
2019-01-04T06:46:44.134Z,1019.7
2019-01-04T06:47:46.338Z,1019.7
2019-01-04T06:48:48.474Z,1019.7
2019-01-04T06:49:50.591Z,1019.7
2019-01-04T06:50:52.726Z,1019.6
2019-01-04T06:51:54.983Z,1019.7
2019-01-04T06:52:57.101Z,1019.6
2019-01-04T06:53:59.251Z,1019.6
2019-01-04T06:55:01.434Z,1019.6
2019-01-04T06:56:03.582Z,1019.6
2019-01-04T06:57:05.734Z,1019.6
2019-01-04T06:58:08.306Z,1019.6
2019-01-04T06:59:10.459Z,1019.6
2019-01-04T07:00:12.648Z,1019.6
2019-01-04T07:01:14.790Z,1019.6
2019-01-04T07:02:16.940Z,1019.6
2019-01-04T07:03:19.072Z,1019.5
2019-01-04T07:04:21.509Z,1019.5
2019-01-04T07:05:23.648Z,1019.5
2019-01-04T07:06:25.788Z,1019.4
2019-01-04T07:07:28.205Z,1019.5
2019-01-04T07:08:30.336Z,1019.5
2019-01-04T07:09:32.692Z,1019.5
2019-01-04T07:10:34.851Z,1019.4
2019-01-04T07:11:37.364Z,1019.5
2019-01-04T07:12:39.498Z,1019.4
2019-01-04T07:13:41.645Z,1019.5
2019-01-04T07:14:44.165Z,1019.5
2019-01-04T07:15:46.284Z,1019.5
2019-01-04T07:16:48.438Z,1019.4
2019-01-04T07:17:50.567Z,1019.5
2019-01-04T07:18:52.686Z,1019.5
2019-01-04T07:19:55.198Z,1019.5
2019-01-04T07:20:57.637Z,1019.5
2019-01-04T07:22:00.184Z,1019.5
2019-01-04T07:23:02.318Z,1019.5
2019-01-04T07:24:04.846Z,1019.4
2019-01-04T07:25:06.988Z,1019.4
2019-01-04T07:26:09.130Z,1019.3
2019-01-04T07:27:11.244Z,1019.3
2019-01-04T07:28:13.374Z,1019.3
2019-01-04T07:29:15.484Z,1019.3
2019-01-04T07:30:17.616Z,1019.2
2019-01-04T07:31:20.017Z,1019.2
2019-01-04T07:32:22.292Z,1019.3
2019-01-04T07:33:24.488Z,1019.2
2019-01-04T07:34:26.921Z,1019.3
2019-01-04T07:35:29.176Z,1019.3
2019-01-04T07:36:32.830Z,1019.2
2019-01-04T07:37:38.631Z,1019.2
2019-01-04T07:38:42.103Z,1019.3
2019-01-04T07:39:49.067Z,1019.3
2019-01-04T07:40:53.485Z,1019.3
2019-01-04T07:41:55.643Z,1019.3
2019-01-04T07:42:58.178Z,1019.2
2019-01-04T07:44:02.134Z,1019.2
2019-01-04T07:45:06.792Z,1019.2
2019-01-04T07:46:10.651Z,1019.2
2019-01-04T07:47:15.205Z,1019.2
2019-01-04T07:48:21.794Z,1019.1
2019-01-04T07:49:26.370Z,1019.1
2019-01-04T07:50:29.907Z,1019
2019-01-04T07:51:32.412Z,1019
2019-01-04T07:52:34.565Z,1019
2019-01-04T07:53:36.733Z,1019
2019-01-04T07:54:39.269Z,1019
2019-01-04T07:55:41.549Z,1019
2019-01-04T07:56:43.718Z,1019.1
2019-01-04T07:57:45.914Z,1019.1
2019-01-04T07:58:48.048Z,1019.1
2019-01-04T07:59:50.194Z,1019.1
2019-01-04T08:00:52.339Z,1019
2019-01-04T08:01:54.762Z,1019.1
2019-01-04T08:02:56.903Z,1019.1
2019-01-04T08:03:59.035Z,1019
2019-01-04T08:05:01.237Z,1019
2019-01-04T08:06:03.671Z,1019
2019-01-04T08:07:06.121Z,1019
2019-01-04T08:08:08.238Z,1019
2019-01-04T08:09:10.381Z,1019
2019-01-04T08:10:12.523Z,1019
2019-01-04T08:11:14.670Z,1019
2019-01-04T08:12:16.793Z,1019
2019-01-04T08:13:18.919Z,1018.9
2019-01-04T08:14:21.048Z,1018.9
2019-01-04T08:15:24.413Z,1018.9
2019-01-04T08:16:32.067Z,1018.9
2019-01-04T08:17:40.085Z,1018.8
2019-01-04T08:18:45.928Z,1018.8
2019-01-04T08:19:54.027Z,1018.8
2019-01-04T08:21:01.390Z,1018.9
2019-01-04T08:22:03.603Z,1018.9
2019-01-04T08:23:05.828Z,1018.9
2019-01-04T08:24:08.003Z,1018.9
2019-01-04T08:25:10.176Z,1018.8
2019-01-04T08:26:12.336Z,1018.8
2019-01-04T08:27:14.465Z,1018.8
2019-01-04T08:28:16.866Z,1018.8
2019-01-04T08:29:19.020Z,1018.8
2019-01-04T08:30:21.369Z,1018.8
2019-01-04T08:31:24.854Z,1018.8
2019-01-04T08:32:27.045Z,1018.8
2019-01-04T08:33:29.325Z,1018.8
2019-01-04T08:34:31.756Z,1018.8
2019-01-04T08:35:33.900Z,1018.7
2019-01-04T08:36:36.034Z,1018.7
2019-01-04T08:37:38.147Z,1018.8
2019-01-04T08:38:40.291Z,1018.8
2019-01-04T08:39:42.432Z,1018.7
2019-01-04T08:40:44.565Z,1018.7
2019-01-04T08:41:46.684Z,1018.7
2019-01-04T08:42:49.093Z,1018.7
2019-01-04T08:43:51.238Z,1018.6
2019-01-04T08:44:53.773Z,1018.6
2019-01-04T08:45:55.900Z,1018.6
2019-01-04T08:46:58.013Z,1018.6
2019-01-04T08:48:00.156Z,1018.6
2019-01-04T08:49:02.298Z,1018.7
2019-01-04T08:50:04.466Z,1018.7
2019-01-04T08:51:06.600Z,1018.7
2019-01-04T08:52:08.718Z,1018.7
2019-01-04T08:53:10.848Z,1018.7
2019-01-04T08:54:13.006Z,1018.8
2019-01-04T08:55:15.144Z,1018.7
2019-01-04T08:56:17.299Z,1018.7
2019-01-04T08:57:19.432Z,1018.8
2019-01-04T08:58:21.558Z,1018.8
2019-01-04T08:59:23.690Z,1018.7
2019-01-04T09:00:25.811Z,1018.7
2019-01-04T09:01:27.968Z,1018.5
2019-01-04T09:02:30.119Z,1018.6
2019-01-04T09:03:32.263Z,1018.6
2019-01-04T09:04:34.447Z,1018.5
2019-01-04T09:05:36.577Z,1018.4
2019-01-04T09:06:38.732Z,1018.4
2019-01-04T09:07:40.867Z,1018.3
2019-01-04T09:08:42.994Z,1018.3
2019-01-04T09:09:45.515Z,1018.4
2019-01-04T09:10:47.669Z,1018.4
2019-01-04T09:11:49.813Z,1018.3
2019-01-04T09:12:51.946Z,1018.3
2019-01-04T09:13:54.091Z,1018.3
2019-01-04T09:14:56.251Z,1018.3
2019-01-04T09:15:58.404Z,1018.2
2019-01-04T09:17:00.538Z,1018.1
2019-01-04T09:18:02.662Z,1018.2
2019-01-04T09:19:04.801Z,1018.1
2019-01-04T09:20:06.929Z,1018.1
2019-01-04T09:21:09.071Z,1018.1
2019-01-04T09:22:11.216Z,1018.1
2019-01-04T09:23:13.358Z,1018.1
2019-01-04T09:24:15.502Z,1018.1
2019-01-04T09:25:17.919Z,1018
2019-01-04T09:26:20.104Z,1018.1
2019-01-04T09:27:22.226Z,1018
2019-01-04T09:28:24.344Z,1018.1
2019-01-04T09:29:26.507Z,1018
2019-01-04T09:30:28.677Z,1018.1
2019-01-04T09:31:30.851Z,1018
2019-01-04T09:32:32.970Z,1018
2019-01-04T09:33:35.108Z,1017.9
2019-01-04T09:34:37.631Z,1017.9
2019-01-04T09:35:39.851Z,1017.9
2019-01-04T09:36:42.117Z,1017.9
2019-01-04T09:37:44.831Z,1017.8
2019-01-04T09:38:46.965Z,1017.9
2019-01-04T09:39:49.142Z,1017.9
2019-01-04T09:40:51.573Z,1017.9
2019-01-04T09:41:53.711Z,1018
2019-01-04T09:42:55.846Z,1017.9
2019-01-04T09:43:58.020Z,1018
2019-01-04T09:45:00.198Z,1017.9
2019-01-04T09:46:02.639Z,1017.8
2019-01-04T09:47:04.784Z,1017.9
2019-01-04T09:48:06.919Z,1017.8
2019-01-04T09:49:09.070Z,1017.8
2019-01-04T09:50:11.220Z,1017.8
2019-01-04T09:51:13.369Z,1017.8
2019-01-04T09:52:15.506Z,1017.8
2019-01-04T09:53:17.647Z,1017.8
2019-01-04T09:54:19.770Z,1017.8
2019-01-04T09:55:21.917Z,1017.7
2019-01-04T09:56:24.065Z,1017.6
2019-01-04T09:57:26.225Z,1017.7
2019-01-04T09:58:28.376Z,1017.6
2019-01-04T09:59:30.493Z,1017.6
2019-01-04T10:00:32.623Z,1017.5
2019-01-04T10:01:34.757Z,1017.5
2019-01-04T10:02:36.875Z,1017.5
2019-01-04T10:03:38.992Z,1017.6
2019-01-04T10:04:41.144Z,1017.5
2019-01-04T10:05:43.294Z,1017.5
2019-01-04T10:06:45.688Z,1017.5
2019-01-04T10:07:47.817Z,1017.4
2019-01-04T10:08:49.970Z,1017.4
2019-01-04T10:09:52.122Z,1017.3
2019-01-04T10:11:39.091Z,1017.4
2019-01-04T10:12:41.219Z,1017.2
2019-01-04T10:13:43.379Z,1017.2
2019-01-04T10:14:45.516Z,1017.2
2019-01-04T10:15:47.664Z,1017.2
2019-01-04T10:16:50.169Z,1017.2
2019-01-04T10:17:52.310Z,1017.1
2019-01-04T10:18:54.425Z,1017.2
2019-01-04T10:19:57.884Z,1017
2019-01-04T10:21:00.293Z,1017
2019-01-04T10:22:02.608Z,1017
2019-01-04T10:23:04.735Z,1016.9
2019-01-04T10:24:06.866Z,1017
2019-01-04T10:25:09.287Z,1016.9
2019-01-04T10:26:12.102Z,1016.8
2019-01-04T10:27:14.249Z,1016.8
2019-01-04T10:28:16.397Z,1016.8
2019-01-04T10:29:18.949Z,1016.8
2019-01-04T10:30:21.153Z,1016.8
2019-01-04T10:31:23.575Z,1016.7
2019-01-04T10:32:25.696Z,1016.8
2019-01-04T10:33:27.878Z,1016.8
2019-01-04T10:34:30.036Z,1016.7
2019-01-04T10:35:32.188Z,1016.7
2019-01-04T10:36:34.316Z,1016.7
2019-01-04T10:37:36.730Z,1016.7
2019-01-04T10:38:38.934Z,1016.7
2019-01-04T10:39:41.075Z,1016.6
2019-01-04T10:40:43.202Z,1016.6
2019-01-04T10:41:45.350Z,1016.5
2019-01-04T10:42:47.768Z,1016.6
2019-01-04T10:43:49.864Z,1016.5
2019-01-04T10:44:52.383Z,1016.5
2019-01-04T10:45:54.503Z,1016.5
2019-01-04T10:46:56.625Z,1016.5
2019-01-04T10:47:58.755Z,1016.4
2019-01-04T10:49:00.967Z,1016.4
2019-01-04T10:50:03.386Z,1016.4
2019-01-04T10:51:05.526Z,1016.4
2019-01-04T10:52:07.675Z,1016.2
2019-01-04T10:53:09.822Z,1016.3
2019-01-04T10:54:11.943Z,1016.3
2019-01-04T10:55:14.095Z,1016.3
2019-01-04T10:56:16.521Z,1016.3
2019-01-04T10:57:18.635Z,1016.2
2019-01-04T10:58:20.761Z,1016.2
2019-01-04T10:59:22.887Z,1016.3
2019-01-04T11:00:25.038Z,1016.2
2019-01-04T11:01:27.171Z,1016.2
2019-01-04T11:02:29.288Z,1016.1
2019-01-04T11:03:31.420Z,1016.2
2019-01-04T11:04:33.559Z,1016.1
2019-01-04T11:05:35.704Z,1016
2019-01-04T11:06:38.141Z,1016
2019-01-04T11:07:40.276Z,1016
2019-01-04T11:08:42.388Z,1016
2019-01-04T11:09:44.528Z,1016
2019-01-04T11:10:46.976Z,1016.1
2019-01-04T11:11:49.108Z,1016.1
2019-01-04T11:12:51.213Z,1016.1
2019-01-04T11:13:53.354Z,1016.2
2019-01-04T11:14:55.482Z,1016.2
2019-01-04T11:15:57.623Z,1016.1
2019-01-04T11:16:59.745Z,1016.1
2019-01-04T11:18:01.872Z,1016.1
2019-01-04T11:19:11.632Z,1016.1
2019-01-04T11:20:13.907Z,1016
2019-01-04T11:21:16.065Z,1016.1
2019-01-04T11:22:18.223Z,1016
2019-01-04T11:23:21.247Z,1016
2019-01-04T11:24:23.465Z,1015.9
2019-01-04T11:25:25.600Z,1015.9
2019-01-04T11:26:27.749Z,1015.8
2019-01-04T11:27:29.886Z,1015.8
2019-01-04T11:28:32.026Z,1015.8
2019-01-04T11:29:34.148Z,1015.8
2019-01-04T11:30:36.298Z,1015.7
2019-01-04T11:31:38.710Z,1015.7
2019-01-04T11:32:41.241Z,1015.7
2019-01-04T11:33:43.385Z,1015.6
2019-01-04T11:34:45.834Z,1015.7
2019-01-04T11:35:47.987Z,1015.7
2019-01-04T11:36:50.156Z,1015.7
2019-01-04T11:37:52.299Z,1015.7
2019-01-04T11:38:54.450Z,1015.7
2019-01-04T11:39:56.575Z,1015.7
2019-01-04T11:40:58.730Z,1015.8
2019-01-04T11:42:00.863Z,1015.8
2019-01-04T11:43:02.996Z,1015.7
2019-01-04T11:44:05.159Z,1015.7
2019-01-04T11:45:07.295Z,1015.7
2019-01-04T11:46:09.413Z,1015.7
2019-01-04T11:47:11.549Z,1015.6
2019-01-04T11:48:13.710Z,1015.6
2019-01-04T11:49:15.835Z,1015.6
2019-01-04T11:50:17.970Z,1015.6
2019-01-04T11:51:20.136Z,1015.5
2019-01-04T11:52:22.274Z,1015.6
2019-01-04T11:53:24.701Z,1015.5
2019-01-04T11:54:26.831Z,1015.5
2019-01-04T11:55:28.975Z,1015.4
2019-01-04T11:56:31.132Z,1015.4
2019-01-04T11:57:33.560Z,1015.4
2019-01-04T11:58:35.691Z,1015.4
2019-01-04T11:59:37.828Z,1015.4
2019-01-04T12:00:41.303Z,1015.3
2019-01-04T12:01:43.720Z,1015.4
2019-01-04T12:02:45.862Z,1015.4
2019-01-04T12:03:47.984Z,1015.3
2019-01-04T12:04:50.107Z,1015.4
2019-01-04T12:05:52.241Z,1015.3
2019-01-04T12:06:54.404Z,1015.3
2019-01-04T12:07:56.532Z,1015.3
2019-01-04T12:08:58.680Z,1015.3
2019-01-04T12:10:00.812Z,1015.3
2019-01-04T12:11:02.943Z,1015.3
2019-01-04T12:12:05.085Z,1015.3
2019-01-04T12:13:07.229Z,1015.4
2019-01-04T12:14:09.381Z,1015.4
2019-01-04T12:15:11.546Z,1015.5
2019-01-04T12:16:13.711Z,1015.4
2019-01-04T12:17:15.841Z,1015.4
2019-01-04T12:18:17.994Z,1015.4
2019-01-04T12:19:20.148Z,1015.5
2019-01-04T12:20:22.291Z,1015.3
2019-01-04T12:21:24.414Z,1015.4
2019-01-04T12:22:26.553Z,1015.4
2019-01-04T12:23:29.065Z,1015.5
2019-01-04T12:24:32.090Z,1015.5
2019-01-04T12:25:34.227Z,1015.4
2019-01-04T12:26:36.376Z,1015.5
2019-01-04T12:27:38.837Z,1015.4
2019-01-04T12:28:41.278Z,1015.5
2019-01-04T12:29:43.421Z,1015.4
2019-01-04T12:30:45.567Z,1015.5
2019-01-04T12:31:47.698Z,1015.5
2019-01-04T12:32:49.826Z,1015.5
2019-01-04T12:33:51.985Z,1015.6
2019-01-04T12:34:54.138Z,1015.5
2019-01-04T12:35:56.672Z,1015.5
2019-01-04T12:36:58.789Z,1015.6
2019-01-04T12:38:01.227Z,1015.5
2019-01-04T12:39:03.657Z,1015.5
2019-01-04T12:40:05.784Z,1015.4
2019-01-04T12:41:07.917Z,1015.4
2019-01-04T12:42:10.082Z,1015.4
2019-01-04T12:44:09.985Z,1015.4
2019-01-04T12:45:12.107Z,1015.3
2019-01-04T12:46:14.255Z,1015.4
2019-01-04T12:47:16.403Z,1015.3
2019-01-04T12:48:18.542Z,1015.2
2019-01-04T12:49:20.683Z,1015.3
2019-01-04T12:50:22.823Z,1015.2
2019-01-04T12:51:24.960Z,1015.2
2019-01-04T12:52:27.167Z,1015.2
2019-01-04T12:53:29.302Z,1015.1
2019-01-04T12:54:31.456Z,1015.2
2019-01-04T12:55:33.606Z,1015.2
2019-01-04T12:56:36.149Z,1015.2
2019-01-04T12:57:38.837Z,1015.2
2019-01-04T12:58:40.950Z,1015.2
2019-01-04T12:59:43.138Z,1015.2
2019-01-04T13:00:45.282Z,1015.2
2019-01-04T13:01:47.410Z,1015.2
2019-01-04T13:02:49.527Z,1015.2
2019-01-04T13:03:51.666Z,1015.2
2019-01-04T13:04:53.799Z,1015.2
2019-01-04T13:05:56.210Z,1015.2
2019-01-04T13:06:58.363Z,1015.1